CDT,Max TemperatureF,Mean TemperatureF,Min TemperatureF,Max Dew PointF,MeanDew PointF,Min DewpointF,Max Humidity, Mean Humidity, Min Humidity, Max Sea Level PressureIn, Mean Sea Level PressureIn, Min Sea Level PressureIn, Max VisibilityMiles, Mean VisibilityMiles, Min VisibilityMiles, Max Wind SpeedMPH, Mean Wind SpeedMPH, Max Gust SpeedMPH,PrecipitationIn, CloudCover, Events, WindDirDegrees
2013-10-1,82,68,53,68,61,54,100,84,48,29.97,29.93,29.86,10,7,0,10,2,,0.00,2,Fog,184
2013-10-2,82,70,57,70,64,57,100,87,54,30.02,29.96,29.89,10,8,3,10,2,,0.00,3,,148
2013-10-3,84,73,62,70,68,63,100,85,55,29.93,29.83,29.74,10,10,5,21,5,26,0.00,3,Rain-Thunderstorm,153
2013-10-4,87,76,66,70,66,59,94,72,48,29.91,29.81,29.76,10,10,2,22,9,30,0.00,4,Rain-Thunderstorm,163
2013-10-5,66,58,48,66,41,36,100,61,42,30.02,29.95,29.88,10,10,7,16,8,24,0.00,2,Rain-Thunderstorm,261
2013-10-6,57,50,42,46,40,34,82,68,55,29.99,29.90,29.84,10,10,10,18,8,30,0.00,5,Rain,275
2013-10-7,69,55,41,52,44,41,100,74,35,30.14,30.08,29.99,10,10,10,8,2,,0.00,0,,234
2013-10-8,75,60,44,50,46,41,100,69,31,30.12,30.08,30.02,10,10,10,15,3,23,0.00,0,,156
2013-10-9,73,62,50,52,48,45,100,69,36,30.12,30.07,30.03,10,10,10,10,3,,0.00,0,,137
2013-10-10,77,60,44,55,50,45,100,74,39,30.09,30.01,29.89,10,10,7,12,3,16,0.00,0,,144
2013-10-11,73,64,55,64,59,54,100,79,65,29.90,29.84,29.78,10,10,10,18,6,24,0.00,3,Rain-Thunderstorm,150
2013-10-12,69,56,44,63,44,34,100,63,28,30.27,30.10,29.83,10,10,10,13,6,18,0.00,1,Rain-Thunderstorm,318
2013-10-13,69,53,37,45,38,32,100,66,25,30.42,30.34,30.27,10,10,10,10,2,17,0.00,0,,74
2013-10-14,68,55,42,59,45,36,100,67,35,30.31,30.12,29.90,10,10,10,16,5,29,0.00,3,Rain,134
2013-10-15,62,55,48,59,45,37,100,70,48,30.07,29.97,29.87,10,10,5,17,10,25,0.00,4,Rain,277
2013-10-16,57,52,46,45,39,37,87,66,51,30.10,30.05,29.99,10,10,10,14,8,23,0.00,7,Rain,299
2013-10-17,64,52,41,46,42,34,100,74,34,30.01,29.96,29.89,10,9,5,15,3,23,0.00,1,Rain,255
2013-10-18,46,42,37,41,37,32,100,89,66,30.15,30.09,30.01,10,10,5,10,5,,0.00,4,Rain,287
2013-10-19,60,48,35,43,37,34,100,77,36,30.09,29.98,29.89,10,10,7,17,6,23,0.00,3,,224
2013-10-20,69,56,42,48,41,37,94,64,33,29.94,29.85,29.78,10,10,10,14,4,23,0.00,2,,191
2013-10-21,55,46,37,45,35,30,100,67,41,30.12,30.06,29.95,10,10,7,17,7,23,0.00,2,,320
2013-10-22,59,47,33,45,38,34,100,69,44,30.12,29.97,29.90,10,10,10,21,6,29,0.00,4,,303
2013-10-23,50,40,30,37,33,30,100,80,50,30.19,30.13,30.05,10,10,4,8,1,,0.00,3,,295
2013-10-24,50,40,30,37,31,23,100,71,35,30.44,30.33,30.19,10,10,10,18,4,25,0.00,3,,333
2013-10-25,55,39,23,34,26,21,100,66,26,30.48,30.36,30.14,10,10,10,15,3,21,0.00,0,,189
2013-10-26,59,46,32,41,34,28,100,62,31,30.19,30.13,30.07,10,10,10,15,5,20,0.00,0,,308
2013-10-27,62,44,26,36,31,27,100,71,27,30.17,30.06,29.94,10,10,10,12,2,9,0.00,0,,191
2013-10-28,68,50,32,48,39,30,100,77,37,30.16,30.10,30.00,10,10,2,10,1,,0.00,0,,141
2013-10-29,60,50,41,61,53,41,100,97,71,30.15,30.04,29.95,10,5,0,10,3,,0.00,7,Fog-Rain,111
2013-10-30,68,64,60,68,64,61,100,98,78,29.98,29.85,29.73,10,6,0,16,5,28,0.00,8,Fog-Rain-Thunderstorm,166
2013-10-31,62,54,46,63,49,43,100,92,71,29.72,29.61,29.56,10,9,2,15,6,20,0.00,5,Rain-Thunderstorm,297